sensor_id;sensor_type;location;lat;lon;timestamp;temperature;humidity
3896;DHT22;1963;48.804;8.358;2022-11-04T00:21:33;11.40;99.90
3896;DHT22;1963;48.804;8.358;2022-11-04T00:24:19;11.40;99.90
3896;DHT22;1963;48.804;8.358;2022-11-04T00:27:04;11.40;99.90
3896;DHT22;1963;48.804;8.358;2022-11-04T00:29:49;11.30;99.90
3896;DHT22;1963;48.804;8.358;2022-11-04T00:32:18;11.30;99.90
3896;DHT22;1963;48.804;8.358;2022-11-04T00:35:04;11.40;99.90
3896;DHT22;1963;48.804;8.358;2022-11-04T00:37:36;11.30;99.90
3896;DHT22;1963;48.804;8.358;2022-11-04T00:40:06;11.30;99.90
3896;DHT22;1963;48.804;8.358;2022-11-04T00:42:34;11.20;99.90
3896;DHT22;1963;48.804;8.358;2022-11-04T00:45:02;11.30;99.90
3896;DHT22;1963;48.804;8.358;2022-11-04T00:47:31;11.20;99.90
3896;DHT22;1963;48.804;8.358;2022-11-04T00:49:59;11.30;99.90
3896;DHT22;1963;48.804;8.358;2022-11-04T00:52:26;11.20;99.90
3896;DHT22;1963;48.804;8.358;2022-11-04T00:54:56;11.20;99.90
3896;DHT22;1963;48.804;8.358;2022-11-04T00:57:24;11.20;99.90
3896;DHT22;1963;48.804;8.358;2022-11-04T00:59:52;11.20;99.90
3896;DHT22;1963;48.804;8.358;2022-11-04T01:02:20;11.20;99.90
3896;DHT22;1963;48.804;8.358;2022-11-04T01:04:49;11.20;99.90
3896;DHT22;1963;48.804;8.358;2022-11-04T01:07:17;11.10;99.90
3896;DHT22;1963;48.804;8.358;2022-11-04T01:09:45;11.10;99.90
3896;DHT22;1963;48.804;8.358;2022-11-04T01:12:14;11.10;99.90
3896;DHT22;1963;48.804;8.358;2022-11-04T01:14:42;11.10;99.90
3896;DHT22;1963;48.804;8.358;2022-11-04T01:17:11;11.10;99.90
3896;DHT22;1963;48.804;8.358;2022-11-04T01:19:39;11.10;99.90
3896;DHT22;1963;48.804;8.358;2022-11-04T01:22:06;11.20;99.90
3896;DHT22;1963;48.804;8.358;2022-11-04T01:24:34;11.10;99.90
3896;DHT22;1963;48.804;8.358;2022-11-04T01:27:02;11.20;99.90
3896;DHT22;1963;48.804;8.358;2022-11-04T01:29:32;11.10;99.90
3896;DHT22;1963;48.804;8.358;2022-11-04T01:31:59;11.10;99.90
3896;DHT22;1963;48.804;8.358;2022-11-04T01:34:28;11.10;99.90
3896;DHT22;1963;48.804;8.358;2022-11-04T01:36:56;11.10;99.90
3896;DHT22;1963;48.804;8.358;2022-11-04T01:39:24;11.10;99.90
3896;DHT22;1963;48.804;8.358;2022-11-04T01:41:52;11.00;99.90
3896;DHT22;1963;48.804;8.358;2022-11-04T01:44:51;11.00;99.90
3896;DHT22;1963;48.804;8.358;2022-11-04T01:47:26;11.00;99.90
3896;DHT22;1963;48.804;8.358;2022-11-04T01:49:58;11.00;99.90
3896;DHT22;1963;48.804;8.358;2022-11-04T01:52:30;11.00;99.90
3896;DHT22;1963;48.804;8.358;2022-11-04T01:55:02;10.90;99.90
3896;DHT22;1963;48.804;8.358;2022-11-04T01:57:34;10.90;99.90
3896;DHT22;1963;48.804;8.358;2022-11-04T02:00:07;10.90;99.90
3896;DHT22;1963;48.804;8.358;2022-11-04T02:02:41;10.80;99.90
3896;DHT22;1963;48.804;8.358;2022-11-04T02:40:11;10.50;99.90
3896;DHT22;1963;48.804;8.358;2022-11-04T02:42:47;10.50;99.90
3896;DHT22;1963;48.804;8.358;2022-11-04T02:45:20;10.50;99.90
3896;DHT22;1963;48.804;8.358;2022-11-04T02:47:53;10.50;99.90
3896;DHT22;1963;48.804;8.358;2022-11-04T02:50:26;10.40;99.90
3896;DHT22;1963;48.804;8.358;2022-11-04T02:53:00;10.40;99.90
3896;DHT22;1963;48.804;8.358;2022-11-04T02:55:34;10.40;99.90
3896;DHT22;1963;48.804;8.358;2022-11-04T02:58:08;10.40;99.90
3896;DHT22;1963;48.804;8.358;2022-11-04T03:00:38;10.40;99.90
3896;DHT22;1963;48.804;8.358;2022-11-04T03:03:12;10.40;99.90
3896;DHT22;1963;48.804;8.358;2022-11-04T03:05:44;10.40;99.90
3896;DHT22;1963;48.804;8.358;2022-11-04T03:08:17;10.40;99.90
3896;DHT22;1963;48.804;8.358;2022-11-04T03:10:51;10.40;99.90
3896;DHT22;1963;48.804;8.358;2022-11-04T03:13:24;10.40;99.90
3896;DHT22;1963;48.804;8.358;2022-11-04T03:15:58;10.30;99.90
3896;DHT22;1963;48.804;8.358;2022-11-04T03:18:32;10.30;99.90
3896;DHT22;1963;48.804;8.358;2022-11-04T03:21:03;10.20;99.90
3896;DHT22;1963;48.804;8.358;2022-11-04T03:23:33;10.20;99.90
3896;DHT22;1963;48.804;8.358;2022-11-04T03:26:14;10.20;99.90
3896;DHT22;1963;48.804;8.358;2022-11-04T03:28:51;10.20;99.90
3896;DHT22;1963;48.804;8.358;2022-11-04T03:31:25;10.00;99.90
3896;DHT22;1963;48.804;8.358;2022-11-04T03:33:55;9.90;99.90
3896;DHT22;1963;48.804;8.358;2022-11-04T03:36:24;9.90;99.90
3896;DHT22;1963;48.804;8.358;2022-11-04T03:38:52;9.90;99.90
3896;DHT22;1963;48.804;8.358;2022-11-04T03:41:27;9.80;99.90
3896;DHT22;1963;48.804;8.358;2022-11-04T03:43:57;9.80;99.90
3896;DHT22;1963;48.804;8.358;2022-11-04T03:46:24;9.80;99.90
3896;DHT22;1963;48.804;8.358;2022-11-04T03:48:52;9.80;99.90
3896;DHT22;1963;48.804;8.358;2022-11-04T03:51:21;9.60;99.90
3896;DHT22;1963;48.804;8.358;2022-11-04T03:53:49;9.60;99.90
3896;DHT22;1963;48.804;8.358;2022-11-04T03:56:33;9.60;99.90
3896;DHT22;1963;48.804;8.358;2022-11-04T03:59:17;9.50;99.90
3896;DHT22;1963;48.804;8.358;2022-11-04T04:01:50;9.50;99.90
3896;DHT22;1963;48.804;8.358;2022-11-04T04:04:24;9.40;99.90
3896;DHT22;1963;48.804;8.358;2022-11-04T04:06:56;9.40;99.90
3896;DHT22;1963;48.804;8.358;2022-11-04T04:09:31;9.40;99.90
3896;DHT22;1963;48.804;8.358;2022-11-04T04:12:07;9.40;99.90
3896;DHT22;1963;48.804;8.358;2022-11-04T04:14:41;9.40;99.90
3896;DHT22;1963;48.804;8.358;2022-11-04T04:17:15;9.30;99.90
3896;DHT22;1963;48.804;8.358;2022-11-04T04:19:48;9.30;99.90
3896;DHT22;1963;48.804;8.358;2022-11-04T04:22:20;9.30;99.90
3896;DHT22;1963;48.804;8.358;2022-11-04T04:24:51;9.20;99.90
3896;DHT22;1963;48.804;8.358;2022-11-04T04:27:40;9.20;99.90
3896;DHT22;1963;48.804;8.358;2022-11-04T04:30:11;9.20;99.90
3896;DHT22;1963;48.804;8.358;2022-11-04T04:32:43;9.10;99.90
3896;DHT22;1963;48.804;8.358;2022-11-04T04:35:12;9.10;99.90
3896;DHT22;1963;48.804;8.358;2022-11-04T04:38:01;9.10;99.90
3896;DHT22;1963;48.804;8.358;2022-11-04T04:40:44;9.10;99.90
3896;DHT22;1963;48.804;8.358;2022-11-04T04:43:33;9.00;99.90
3896;DHT22;1963;48.804;8.358;2022-11-04T04:46:19;9.00;99.90
3896;DHT22;1963;48.804;8.358;2022-11-04T04:48:47;8.90;99.90
3896;DHT22;1963;48.804;8.358;2022-11-04T04:51:15;8.90;99.90
3896;DHT22;1963;48.804;8.358;2022-11-04T04:53:43;8.90;99.90
3896;DHT22;1963;48.804;8.358;2022-11-04T04:56:11;8.90;99.90
3896;DHT22;1963;48.804;8.358;2022-11-04T04:58:40;8.90;99.90
3896;DHT22;1963;48.804;8.358;2022-11-04T05:01:08;8.90;99.90
3896;DHT22;1963;48.804;8.358;2022-11-04T05:03:36;8.80;99.90
3896;DHT22;1963;48.804;8.358;2022-11-04T05:06:10;8.90;99.90
3896;DHT22;1963;48.804;8.358;2022-11-04T05:08:38;8.80;99.90
3896;DHT22;1963;48.804;8.358;2022-11-04T05:11:06;8.80;99.90
3896;DHT22;1963;48.804;8.358;2022-11-04T05:13:34;8.80;99.90
3896;DHT22;1963;48.804;8.358;2022-11-04T05:16:05;8.80;99.90
3896;DHT22;1963;48.804;8.358;2022-11-04T05:18:33;8.80;99.90
3896;DHT22;1963;48.804;8.358;2022-11-04T05:21:03;8.80;99.90
3896;DHT22;1963;48.804;8.358;2022-11-04T05:23:31;8.80;99.90
3896;DHT22;1963;48.804;8.358;2022-11-04T05:25:59;8.80;99.90
3896;DHT22;1963;48.804;8.358;2022-11-04T05:28:27;8.80;99.90
3896;DHT22;1963;48.804;8.358;2022-11-04T05:30:55;8.80;99.90
3896;DHT22;1963;48.804;8.358;2022-11-04T05:33:24;8.80;99.90
3896;DHT22;1963;48.804;8.358;2022-11-04T05:35:52;8.80;99.90
3896;DHT22;1963;48.804;8.358;2022-11-04T05:38:20;8.80;99.90
3896;DHT22;1963;48.804;8.358;2022-11-04T05:40:48;8.80;99.90
3896;DHT22;1963;48.804;8.358;2022-11-04T05:43:16;8.80;99.90
3896;DHT22;1963;48.804;8.358;2022-11-04T05:45:44;8.90;99.90
3896;DHT22;1963;48.804;8.358;2022-11-04T05:48:12;8.90;99.90
3896;DHT22;1963;48.804;8.358;2022-11-04T05:50:41;8.90;99.90
3896;DHT22;1963;48.804;8.358;2022-11-04T05:53:09;8.90;99.90
3896;DHT22;1963;48.804;8.358;2022-11-04T05:55:38;8.90;99.90
3896;DHT22;1963;48.804;8.358;2022-11-04T05:58:06;8.90;99.90
3896;DHT22;1963;48.804;8.358;2022-11-04T06:00:34;8.90;99.90
3896;DHT22;1963;48.804;8.358;2022-11-04T06:03:02;8.90;99.90
3896;DHT22;1963;48.804;8.358;2022-11-04T06:05:30;8.80;99.90
3896;DHT22;1963;48.804;8.358;2022-11-04T06:08:00;8.80;99.90
3896;DHT22;1963;48.804;8.358;2022-11-04T06:10:28;8.80;99.90
3896;DHT22;1963;48.804;8.358;2022-11-04T06:12:56;8.80;99.90
3896;DHT22;1963;48.804;8.358;2022-11-04T06:15:24;8.70;99.90
3896;DHT22;1963;48.804;8.358;2022-11-04T06:17:52;8.70;99.90
3896;DHT22;1963;48.804;8.358;2022-11-04T06:20:20;8.70;99.90
3896;DHT22;1963;48.804;8.358;2022-11-04T06:22:48;8.70;99.90
3896;DHT22;1963;48.804;8.358;2022-11-04T06:25:17;8.60;99.90
3896;DHT22;1963;48.804;8.358;2022-11-04T06:27:46;8.60;99.90
3896;DHT22;1963;48.804;8.358;2022-11-04T06:30:14;8.60;99.90
3896;DHT22;1963;48.804;8.358;2022-11-04T06:32:42;8.60;99.90
3896;DHT22;1963;48.804;8.358;2022-11-04T06:35:10;8.60;99.90
3896;DHT22;1963;48.804;8.358;2022-11-04T06:37:37;8.60;99.90
3896;DHT22;1963;48.804;8.358;2022-11-04T06:40:06;8.60;99.90
3896;DHT22;1963;48.804;8.358;2022-11-04T06:42:36;8.60;99.90
3896;DHT22;1963;48.804;8.358;2022-11-04T06:45:05;8.60;99.90
3896;DHT22;1963;48.804;8.358;2022-11-04T06:47:33;8.60;99.90
3896;DHT22;1963;48.804;8.358;2022-11-04T06:50:01;8.70;99.90
3896;DHT22;1963;48.804;8.358;2022-11-04T06:52:29;8.70;99.90
3896;DHT22;1963;48.804;8.358;2022-11-04T06:54:57;8.70;99.90
3896;DHT22;1963;48.804;8.358;2022-11-04T06:57:25;8.70;99.90
3896;DHT22;1963;48.804;8.358;2022-11-04T06:59:54;8.80;99.90
3896;DHT22;1963;48.804;8.358;2022-11-04T07:02:22;8.80;99.90
3896;DHT22;1963;48.804;8.358;2022-11-04T07:04:50;8.80;99.90
3896;DHT22;1963;48.804;8.358;2022-11-04T07:07:18;8.90;99.90
3896;DHT22;1963;48.804;8.358;2022-11-04T07:09:46;8.90;99.90
3896;DHT22;1963;48.804;8.358;2022-11-04T07:12:14;8.90;99.90
3896;DHT22;1963;48.804;8.358;2022-11-04T07:14:42;9.00;99.90
3896;DHT22;1963;48.804;8.358;2022-11-04T07:17:11;9.00;99.90
3896;DHT22;1963;48.804;8.358;2022-11-04T07:19:39;9.00;99.90
3896;DHT22;1963;48.804;8.358;2022-11-04T07:22:07;9.10;99.90
3896;DHT22;1963;48.804;8.358;2022-11-04T07:24:35;9.10;99.90
3896;DHT22;1963;48.804;8.358;2022-11-04T07:27:04;9.10;99.90
3896;DHT22;1963;48.804;8.358;2022-11-04T07:29:33;9.20;99.90
3896;DHT22;1963;48.804;8.358;2022-11-04T07:32:01;9.20;99.90
3896;DHT22;1963;48.804;8.358;2022-11-04T07:34:31;9.20;99.90
3896;DHT22;1963;48.804;8.358;2022-11-04T07:36:59;9.30;99.90
3896;DHT22;1963;48.804;8.358;2022-11-04T07:39:27;9.30;99.90
3896;DHT22;1963;48.804;8.358;2022-11-04T07:41:55;9.40;99.90
3896;DHT22;1963;48.804;8.358;2022-11-04T07:44:25;9.40;99.90
3896;DHT22;1963;48.804;8.358;2022-11-04T07:46:53;9.50;99.90
3896;DHT22;1963;48.804;8.358;2022-11-04T07:49:21;9.50;99.90
3896;DHT22;1963;48.804;8.358;2022-11-04T07:51:52;9.50;99.90
3896;DHT22;1963;48.804;8.358;2022-11-04T07:54:20;9.60;99.90
3896;DHT22;1963;48.804;8.358;2022-11-04T07:56:48;9.60;99.90
3896;DHT22;1963;48.804;8.358;2022-11-04T07:59:16;9.70;99.90
3896;DHT22;1963;48.804;8.358;2022-11-04T08:01:44;9.80;99.90
3896;DHT22;1963;48.804;8.358;2022-11-04T08:04:12;9.90;99.90
3896;DHT22;1963;48.804;8.358;2022-11-04T08:06:40;10.00;99.90
3896;DHT22;1963;48.804;8.358;2022-11-04T08:09:13;10.00;99.90
3896;DHT22;1963;48.804;8.358;2022-11-04T08:11:41;10.10;99.90
3896;DHT22;1963;48.804;8.358;2022-11-04T08:14:20;10.30;99.90
3896;DHT22;1963;48.804;8.358;2022-11-04T08:16:59;10.40;99.90
3896;DHT22;1963;48.804;8.358;2022-11-04T08:19:29;10.50;99.90
3896;DHT22;1963;48.804;8.358;2022-11-04T08:22:10;10.60;99.90
3896;DHT22;1963;48.804;8.358;2022-11-04T08:24:50;10.80;99.90
3896;DHT22;1963;48.804;8.358;2022-11-04T08:27:27;10.90;99.90
3896;DHT22;1963;48.804;8.358;2022-11-04T08:30:13;11.10;99.90
3896;DHT22;1963;48.804;8.358;2022-11-04T08:32:46;11.30;99.90
3896;DHT22;1963;48.804;8.358;2022-11-04T09:15:07;16.10;99.90
3896;DHT22;1963;48.804;8.358;2022-11-04T09:17:36;16.40;99.90
3896;DHT22;1963;48.804;8.358;2022-11-04T09:20:05;16.60;99.90
3896;DHT22;1963;48.804;8.358;2022-11-04T09:22:33;16.90;99.90
3896;DHT22;1963;48.804;8.358;2022-11-04T09:25:01;17.40;99.90
3896;DHT22;1963;48.804;8.358;2022-11-04T09:27:29;17.70;99.90
3896;DHT22;1963;48.804;8.358;2022-11-04T09:29:57;18.00;99.90
3896;DHT22;1963;48.804;8.358;2022-11-04T09:32:26;18.30;99.90
3896;DHT22;1963;48.804;8.358;2022-11-04T09:34:54;18.30;99.90
3896;DHT22;1963;48.804;8.358;2022-11-04T09:37:22;18.40;99.90
3896;DHT22;1963;48.804;8.358;2022-11-04T09:39:50;18.20;99.90
3896;DHT22;1963;48.804;8.358;2022-11-04T09:42:31;18.20;99.90
3896;DHT22;1963;48.804;8.358;2022-11-04T09:45:08;18.20;99.90
3896;DHT22;1963;48.804;8.358;2022-11-04T09:47:57;18.50;99.90
3896;DHT22;1963;48.804;8.358;2022-11-04T09:50:30;18.60;99.90
3896;DHT22;1963;48.804;8.358;2022-11-04T09:53:02;18.50;99.90
3896;DHT22;1963;48.804;8.358;2022-11-04T09:55:37;18.30;99.90
3896;DHT22;1963;48.804;8.358;2022-11-04T09:58:11;18.00;99.90
3896;DHT22;1963;48.804;8.358;2022-11-04T10:00:41;18.00;99.90
3896;DHT22;1963;48.804;8.358;2022-11-04T10:03:23;18.00;99.90
3896;DHT22;1963;48.804;8.358;2022-11-04T10:06:06;18.10;99.90
3896;DHT22;1963;48.804;8.358;2022-11-04T10:09:03;18.00;99.90
3896;DHT22;1963;48.804;8.358;2022-11-04T10:11:41;17.90;99.90
3896;DHT22;1963;48.804;8.358;2022-11-04T10:14:28;17.90;99.90
3896;DHT22;1963;48.804;8.358;2022-11-04T10:17:09;17.70;99.90
3896;DHT22;1963;48.804;8.358;2022-11-04T10:19:49;17.30;99.90
3896;DHT22;1963;48.804;8.358;2022-11-04T10:22:26;17.30;99.90
3896;DHT22;1963;48.804;8.358;2022-11-04T10:25:04;17.30;99.90
3896;DHT22;1963;48.804;8.358;2022-11-04T10:27:37;17.50;99.90
3896;DHT22;1963;48.804;8.358;2022-11-04T10:30:15;17.50;99.90
3896;DHT22;1963;48.804;8.358;2022-11-04T10:32:52;17.30;99.90
3896;DHT22;1963;48.804;8.358;2022-11-04T10:35:29;17.20;99.90
3896;DHT22;1963;48.804;8.358;2022-11-04T10:38:14;17.30;99.90
3896;DHT22;1963;48.804;8.358;2022-11-04T10:40:46;17.00;99.90
3896;DHT22;1963;48.804;8.358;2022-11-04T10:43:17;17.00;99.90
3896;DHT22;1963;48.804;8.358;2022-11-04T10:45:54;17.00;99.90
3896;DHT22;1963;48.804;8.358;2022-11-04T10:48:33;16.90;99.90
3896;DHT22;1963;48.804;8.358;2022-11-04T10:51:05;17.00;99.90
3896;DHT22;1963;48.804;8.358;2022-11-04T10:53:33;17.10;99.90
3896;DHT22;1963;48.804;8.358;2022-11-04T10:56:05;17.20;99.90
3896;DHT22;1963;48.804;8.358;2022-11-04T10:58:41;17.20;99.90
3896;DHT22;1963;48.804;8.358;2022-11-04T11:01:25;17.00;99.90
3896;DHT22;1963;48.804;8.358;2022-11-04T11:03:58;16.90;99.90
3896;DHT22;1963;48.804;8.358;2022-11-04T11:06:41;17.00;99.90
3896;DHT22;1963;48.804;8.358;2022-11-04T11:09:21;17.20;99.90
3896;DHT22;1963;48.804;8.358;2022-11-04T11:11:56;16.90;99.90
3896;DHT22;1963;48.804;8.358;2022-11-04T11:14:40;16.80;99.90
3896;DHT22;1963;48.804;8.358;2022-11-04T11:17:34;16.80;99.90
3896;DHT22;1963;48.804;8.358;2022-11-04T11:20:20;16.80;99.90
3896;DHT22;1963;48.804;8.358;2022-11-04T11:22:54;16.80;99.90
3896;DHT22;1963;48.804;8.358;2022-11-04T11:25:31;16.70;99.90
3896;DHT22;1963;48.804;8.358;2022-11-04T11:28:09;16.70;99.90
3896;DHT22;1963;48.804;8.358;2022-11-04T11:30:55;16.60;99.90
3896;DHT22;1963;48.804;8.358;2022-11-04T12:12:40;16.30;99.90
3896;DHT22;1963;48.804;8.358;2022-11-04T12:18:39;16.20;97.50
3896;DHT22;1963;48.804;8.358;2022-11-04T12:21:15;16.10;99.00
3896;DHT22;1963;48.804;8.358;2022-11-04T12:39:58;16.00;99.50
3896;DHT22;1963;48.804;8.358;2022-11-04T12:42:59;16.10;96.70
3896;DHT22;1963;48.804;8.358;2022-11-04T12:45:40;15.70;96.70
3896;DHT22;1963;48.804;8.358;2022-11-04T12:48:23;15.60;95.40
3896;DHT22;1963;48.804;8.358;2022-11-04T12:50:59;15.60;96.60
3896;DHT22;1963;48.804;8.358;2022-11-04T12:53:44;15.50;95.50
3896;DHT22;1963;48.804;8.358;2022-11-04T12:56:18;15.40;94.40
3896;DHT22;1963;48.804;8.358;2022-11-04T12:59:06;15.50;97.00
3896;DHT22;1963;48.804;8.358;2022-11-04T13:01:39;15.60;98.60
3896;DHT22;1963;48.804;8.358;2022-11-04T13:04:11;15.60;98.80
3896;DHT22;1963;48.804;8.358;2022-11-04T13:06:42;15.70;99.30
3896;DHT22;1963;48.804;8.358;2022-11-04T13:09:18;15.70;97.00
3896;DHT22;1963;48.804;8.358;2022-11-04T13:11:51;15.60;95.10
3896;DHT22;1963;48.804;8.358;2022-11-04T13:14:24;15.60;96.10
3896;DHT22;1963;48.804;8.358;2022-11-04T13:16:57;15.60;96.50
3896;DHT22;1963;48.804;8.358;2022-11-04T13:19:29;15.50;95.00
3896;DHT22;1963;48.804;8.358;2022-11-04T13:22:01;15.50;94.90
3896;DHT22;1963;48.804;8.358;2022-11-04T13:24:32;15.60;96.00
3896;DHT22;1963;48.804;8.358;2022-11-04T13:27:17;15.50;96.60
3896;DHT22;1963;48.804;8.358;2022-11-04T13:29:46;15.60;97.40
3896;DHT22;1963;48.804;8.358;2022-11-04T13:32:22;15.50;97.10
3896;DHT22;1963;48.804;8.358;2022-11-04T13:34:56;15.30;93.80
3896;DHT22;1963;48.804;8.358;2022-11-04T13:37:28;15.30;95.20
3896;DHT22;1963;48.804;8.358;2022-11-04T13:39:59;15.40;98.30
3896;DHT22;1963;48.804;8.358;2022-11-04T13:45:49;15.60;99.20
3896;DHT22;1963;48.804;8.358;2022-11-04T13:48:20;15.50;96.40
3896;DHT22;1963;48.804;8.358;2022-11-04T13:50:55;15.40;96.10
3896;DHT22;1963;48.804;8.358;2022-11-04T13:53:40;15.30;95.30
3896;DHT22;1963;48.804;8.358;2022-11-04T13:56:09;15.10;94.50
3896;DHT22;1963;48.804;8.358;2022-11-04T13:59:00;15.10;96.50
3896;DHT22;1963;48.804;8.358;2022-11-04T14:01:31;15.10;95.50
3896;DHT22;1963;48.804;8.358;2022-11-04T14:04:28;15.20;96.90
3896;DHT22;1963;48.804;8.358;2022-11-04T14:07:01;15.00;95.80
3896;DHT22;1963;48.804;8.358;2022-11-04T14:12:32;15.20;98.10
3896;DHT22;1963;48.804;8.358;2022-11-04T14:18:28;15.10;97.90
3896;DHT22;1963;48.804;8.358;2022-11-04T14:21:06;15.10;98.00
3896;DHT22;1963;48.804;8.358;2022-11-04T14:23:36;15.10;96.60
3896;DHT22;1963;48.804;8.358;2022-11-04T14:26:07;15.10;98.90
3896;DHT22;1963;48.804;8.358;2022-11-04T14:28:38;15.20;99.90
3896;DHT22;1963;48.804;8.358;2022-11-04T14:31:11;15.20;99.90
3896;DHT22;1963;48.804;8.358;2022-11-04T14:33:52;15.20;99.60
3896;DHT22;1963;48.804;8.358;2022-11-04T14:36:33;15.10;99.90
3896;DHT22;1963;48.804;8.358;2022-11-04T14:39:19;15.00;99.90
3896;DHT22;1963;48.804;8.358;2022-11-04T14:41:50;14.90;99.80
3896;DHT22;1963;48.804;8.358;2022-11-04T14:44:29;14.90;99.90
3896;DHT22;1963;48.804;8.358;2022-11-04T14:47:01;14.80;99.90
3896;DHT22;1963;48.804;8.358;2022-11-04T14:49:41;14.70;99.90
3896;DHT22;1963;48.804;8.358;2022-11-04T14:52:28;14.60;99.90
3896;DHT22;1963;48.804;8.358;2022-11-04T14:55:10;14.60;99.90
3896;DHT22;1963;48.804;8.358;2022-11-04T14:57:43;14.50;99.90
3896;DHT22;1963;48.804;8.358;2022-11-04T15:00:30;14.60;99.90
3896;DHT22;1963;48.804;8.358;2022-11-04T15:03:09;14.40;99.30
3896;DHT22;1963;48.804;8.358;2022-11-04T15:06:02;14.40;99.90
3896;DHT22;1963;48.804;8.358;2022-11-04T15:08:33;14.40;99.90
3896;DHT22;1963;48.804;8.358;2022-11-04T15:11:06;14.40;99.90
3896;DHT22;1963;48.804;8.358;2022-11-04T15:13:46;14.40;99.90
3896;DHT22;1963;48.804;8.358;2022-11-04T15:16:24;14.40;99.90
3896;DHT22;1963;48.804;8.358;2022-11-04T15:18:54;14.30;99.90
3896;DHT22;1963;48.804;8.358;2022-11-04T15:21:24;14.30;99.90
3896;DHT22;1963;48.804;8.358;2022-11-04T15:23:54;14.20;99.90
3896;DHT22;1963;48.804;8.358;2022-11-04T15:26:26;14.20;99.90
3896;DHT22;1963;48.804;8.358;2022-11-04T15:31:55;14.00;99.90
3896;DHT22;1963;48.804;8.358;2022-11-04T15:34:25;14.00;99.90
3896;DHT22;1963;48.804;8.358;2022-11-04T15:36:57;13.90;99.90
3896;DHT22;1963;48.804;8.358;2022-11-04T15:39:31;13.70;99.90
3896;DHT22;1963;48.804;8.358;2022-11-04T15:42:06;13.50;99.90
3896;DHT22;1963;48.804;8.358;2022-11-04T15:44:58;13.30;99.90
3896;DHT22;1963;48.804;8.358;2022-11-04T15:47:27;13.30;99.90
3896;DHT22;1963;48.804;8.358;2022-11-04T15:50:02;13.10;99.90
3896;DHT22;1963;48.804;8.358;2022-11-04T15:52:32;12.90;99.90
3896;DHT22;1963;48.804;8.358;2022-11-04T15:55:00;12.80;99.90
3896;DHT22;1963;48.804;8.358;2022-11-04T15:57:31;12.70;99.90
3896;DHT22;1963;48.804;8.358;2022-11-04T16:00:03;12.70;99.90
3896;DHT22;1963;48.804;8.358;2022-11-04T16:02:34;12.60;99.90
3896;DHT22;1963;48.804;8.358;2022-11-04T16:05:20;12.60;99.90
3896;DHT22;1963;48.804;8.358;2022-11-04T16:07:52;12.50;99.90
3896;DHT22;1963;48.804;8.358;2022-11-04T16:10:34;12.50;99.90
3896;DHT22;1963;48.804;8.358;2022-11-04T16:13:24;12.50;99.90
3896;DHT22;1963;48.804;8.358;2022-11-04T16:16:06;12.40;99.90
3896;DHT22;1963;48.804;8.358;2022-11-04T16:30:05;12.20;99.90
3896;DHT22;1963;48.804;8.358;2022-11-04T16:32:40;12.30;99.90
3896;DHT22;1963;48.804;8.358;2022-11-04T16:35:15;12.30;99.90
3896;DHT22;1963;48.804;8.358;2022-11-04T16:37:44;12.30;99.90
3896;DHT22;1963;48.804;8.358;2022-11-04T16:40:16;12.30;99.90
3896;DHT22;1963;48.804;8.358;2022-11-04T16:42:45;12.20;99.90
3896;DHT22;1963;48.804;8.358;2022-11-04T16:45:22;12.20;99.90
3896;DHT22;1963;48.804;8.358;2022-11-04T16:47:52;12.20;99.90
3896;DHT22;1963;48.804;8.358;2022-11-04T16:50:20;12.20;99.90
3896;DHT22;1963;48.804;8.358;2022-11-04T16:52:50;12.20;99.90
3896;DHT22;1963;48.804;8.358;2022-11-04T16:55:32;12.20;99.90
3896;DHT22;1963;48.804;8.358;2022-11-04T16:58:03;12.10;99.90
3896;DHT22;1963;48.804;8.358;2022-11-04T17:00:33;12.10;99.90
3896;DHT22;1963;48.804;8.358;2022-11-04T17:03:12;12.20;99.90
3896;DHT22;1963;48.804;8.358;2022-11-04T17:05:48;12.10;99.90
3896;DHT22;1963;48.804;8.358;2022-11-04T17:08:16;12.00;99.90
3896;DHT22;1963;48.804;8.358;2022-11-04T17:10:44;12.10;99.90
3896;DHT22;1963;48.804;8.358;2022-11-04T17:13:36;12.00;99.90
3896;DHT22;1963;48.804;8.358;2022-11-04T17:19:53;11.70;99.90
3896;DHT22;1963;48.804;8.358;2022-11-04T17:22:25;11.60;99.90
3896;DHT22;1963;48.804;8.358;2022-11-04T17:32:36;11.50;99.90
3896;DHT22;1963;48.804;8.358;2022-11-04T18:30:11;11.20;99.90
3896;DHT22;1963;48.804;8.358;2022-11-04T18:32:49;11.10;99.90
3896;DHT22;1963;48.804;8.358;2022-11-04T18:46:51;11.10;99.90
3896;DHT22;1963;48.804;8.358;2022-11-04T18:49:48;11.00;99.90
3896;DHT22;1963;48.804;8.358;2022-11-04T19:03:54;11.00;99.90
3896;DHT22;1963;48.804;8.358;2022-11-04T19:06:48;11.00;99.90
3896;DHT22;1963;48.804;8.358;2022-11-04T19:13:02;11.00;99.90
3896;DHT22;1963;48.804;8.358;2022-11-04T19:15:48;11.00;99.90
3896;DHT22;1963;48.804;8.358;2022-11-04T19:18:17;11.00;99.90
3896;DHT22;1963;48.804;8.358;2022-11-04T19:20:47;10.90;99.90
3896;DHT22;1963;48.804;8.358;2022-11-04T19:23:15;11.00;99.90
3896;DHT22;1963;48.804;8.358;2022-11-04T19:25:43;11.00;99.90
3896;DHT22;1963;48.804;8.358;2022-11-04T19:28:13;11.00;99.90
3896;DHT22;1963;48.804;8.358;2022-11-04T19:31:12;11.00;99.90
3896;DHT22;1963;48.804;8.358;2022-11-04T19:33:41;11.00;99.90
3896;DHT22;1963;48.804;8.358;2022-11-04T19:36:10;11.00;99.90
3896;DHT22;1963;48.804;8.358;2022-11-04T19:38:39;11.00;99.90
3896;DHT22;1963;48.804;8.358;2022-11-04T19:41:10;11.00;99.90
3896;DHT22;1963;48.804;8.358;2022-11-04T19:44:03;11.10;99.90
3896;DHT22;1963;48.804;8.358;2022-11-04T19:46:33;11.00;99.90
3896;DHT22;1963;48.804;8.358;2022-11-04T19:49:02;11.00;99.90
3896;DHT22;1963;48.804;8.358;2022-11-04T19:51:30;11.00;99.90
3896;DHT22;1963;48.804;8.358;2022-11-04T19:53:59;11.00;99.90
3896;DHT22;1963;48.804;8.358;2022-11-04T19:56:27;11.00;99.90
3896;DHT22;1963;48.804;8.358;2022-11-04T20:02:20;11.00;99.90
3896;DHT22;1963;48.804;8.358;2022-11-04T20:05:12;11.00;99.90
3896;DHT22;1963;48.804;8.358;2022-11-04T20:07:40;11.00;99.90
3896;DHT22;1963;48.804;8.358;2022-11-04T20:10:09;11.00;99.90
3896;DHT22;1963;48.804;8.358;2022-11-04T20:12:39;11.00;99.90
3896;DHT22;1963;48.804;8.358;2022-11-04T20:15:25;11.00;99.90
3896;DHT22;1963;48.804;8.358;2022-11-04T20:17:55;11.10;99.90
3896;DHT22;1963;48.804;8.358;2022-11-04T20:20:25;11.00;99.90
3896;DHT22;1963;48.804;8.358;2022-11-04T20:22:53;11.00;99.90
3896;DHT22;1963;48.804;8.358;2022-11-04T21:01:44;11.00;99.90
3896;DHT22;1963;48.804;8.358;2022-11-04T21:04:17;10.80;99.90
3896;DHT22;1963;48.804;8.358;2022-11-04T21:06:47;10.80;99.90
3896;DHT22;1963;48.804;8.358;2022-11-04T21:09:17;10.80;99.90
3896;DHT22;1963;48.804;8.358;2022-11-04T21:11:45;10.80;99.90
3896;DHT22;1963;48.804;8.358;2022-11-04T21:14:15;10.70;99.90
3896;DHT22;1963;48.804;8.358;2022-11-04T21:16:46;10.60;99.90
3896;DHT22;1963;48.804;8.358;2022-11-04T21:19:14;10.50;99.90
3896;DHT22;1963;48.804;8.358;2022-11-04T21:21:43;10.50;99.90
3896;DHT22;1963;48.804;8.358;2022-11-04T21:24:13;10.50;99.90
3896;DHT22;1963;48.804;8.358;2022-11-04T21:26:43;10.50;99.90
3896;DHT22;1963;48.804;8.358;2022-11-04T21:29:12;10.50;99.90
3896;DHT22;1963;48.804;8.358;2022-11-04T21:31:41;10.50;99.90
3896;DHT22;1963;48.804;8.358;2022-11-04T21:34:11;10.40;99.90
3896;DHT22;1963;48.804;8.358;2022-11-04T21:36:39;10.50;99.90
3896;DHT22;1963;48.804;8.358;2022-11-04T21:42:37;10.50;99.90
3896;DHT22;1963;48.804;8.358;2022-11-04T21:45:06;10.50;99.90
3896;DHT22;1963;48.804;8.358;2022-11-04T21:47:34;10.50;99.90
3896;DHT22;1963;48.804;8.358;2022-11-04T21:50:04;10.40;99.90
3896;DHT22;1963;48.804;8.358;2022-11-04T21:52:32;10.50;99.90
3896;DHT22;1963;48.804;8.358;2022-11-04T21:55:00;10.40;99.90
3896;DHT22;1963;48.804;8.358;2022-11-04T21:57:28;10.40;99.90
3896;DHT22;1963;48.804;8.358;2022-11-04T21:59:55;10.50;99.90